createdAt,value
2023-02-18T00:01:26.922Z,102871.50
2023-02-18T00:03:53.754Z,102869.41
2023-02-18T00:06:22.191Z,102859.16
2023-02-18T00:08:49.686Z,102873.81
2023-02-18T00:11:18.056Z,102875.25
2023-02-18T00:13:51.352Z,102858.47
2023-02-18T00:16:18.147Z,102867.41
2023-02-18T00:18:44.910Z,102858.34
2023-02-18T00:21:11.789Z,102850.88
2023-02-18T00:23:38.610Z,102865.72
2023-02-18T00:26:11.274Z,102860.19
2023-02-18T00:28:39.436Z,102855.47
2023-02-18T00:31:12.578Z,102848.81
2023-02-18T00:33:39.861Z,102850.75
2023-02-18T00:36:10.805Z,102853.03
2023-02-18T00:38:37.832Z,102848.31
2023-02-18T00:41:05.077Z,102853.25
2023-02-18T00:43:31.847Z,102859.31
2023-02-18T00:45:58.673Z,102847.13
2023-02-18T00:48:25.586Z,102836.25
2023-02-18T00:50:52.385Z,102840.38
2023-02-18T00:53:19.313Z,102843.97
2023-02-18T00:55:48.047Z,102844.09
2023-02-18T00:58:15.669Z,102845.66
2023-02-18T01:00:43.209Z,102838.97
2023-02-18T01:03:10.461Z,102842.13
2023-02-18T01:05:38.209Z,102835.94
2023-02-18T01:08:07.997Z,102838.13
2023-02-18T01:10:36.565Z,102827.25
2023-02-18T01:13:04.887Z,102837.28
2023-02-18T01:15:32.174Z,102838.84
2023-02-18T01:17:58.928Z,102839.09
2023-02-18T01:20:25.870Z,102842.38
2023-02-18T01:22:52.933Z,102829.66
2023-02-18T01:25:21.507Z,102827.03
2023-02-18T01:27:48.374Z,102830.66
2023-02-18T01:30:17.636Z,102830.03
2023-02-18T01:32:45.231Z,102823.53
2023-02-18T01:35:15.385Z,102823.00
2023-02-18T01:37:42.355Z,102815.63
2023-02-18T01:40:12.477Z,102823.88
2023-02-18T01:42:39.276Z,102811.44
2023-02-18T01:45:33.961Z,102813.34
2023-02-18T01:48:21.836Z,102816.59
2023-02-18T01:50:56.662Z,102818.41
2023-02-18T01:53:33.398Z,102816.22
2023-02-18T01:56:04.267Z,102816.56
2023-02-18T01:58:32.147Z,102813.97
2023-02-18T02:00:58.902Z,102812.16
2023-02-18T02:03:25.806Z,102809.28
2023-02-18T02:05:52.577Z,102809.06
2023-02-18T02:08:19.412Z,102805.00
2023-02-18T02:10:58.710Z,102800.13
2023-02-18T02:13:34.393Z,102791.00
2023-02-18T02:16:21.235Z,102797.03
2023-02-18T02:19:03.462Z,102792.53
2023-02-18T02:21:41.199Z,102797.31
2023-02-18T02:24:37.018Z,102791.53
2023-02-18T02:27:23.183Z,102797.00
2023-02-18T02:30:13.520Z,102787.69
2023-02-18T02:32:46.172Z,102796.72
2023-02-18T02:35:24.638Z,102794.38
2023-02-18T02:38:19.668Z,102795.53
2023-02-18T02:40:57.541Z,102781.13
2023-02-18T02:43:55.605Z,102777.75
2023-02-18T02:46:47.065Z,102776.44
2023-02-18T02:49:37.768Z,102765.91
2023-02-18T02:52:26.282Z,102774.59
2023-02-18T02:54:53.127Z,102779.09
2023-02-18T02:57:19.882Z,102775.00
2023-02-18T03:00:16.787Z,102776.06
2023-02-18T03:02:59.070Z,102770.94
2023-02-18T03:05:49.650Z,102767.53
2023-02-18T03:08:43.330Z,102772.41
2023-02-18T03:11:13.568Z,102768.50
2023-02-18T03:14:05.082Z,102771.34
2023-02-18T03:17:14.179Z,102770.53
2023-02-18T03:19:50.065Z,102773.50
2023-02-18T03:22:22.018Z,102759.13
2023-02-18T03:24:50.559Z,102765.94
2023-02-18T03:27:25.335Z,102764.47
2023-02-18T03:30:11.348Z,102761.13
2023-02-18T03:32:38.161Z,102762.06
2023-02-18T03:35:11.294Z,102767.53
2023-02-18T03:37:45.707Z,102761.53
2023-02-18T03:40:12.969Z,102761.72
2023-02-18T03:42:39.795Z,102766.19
2023-02-18T03:45:07.539Z,102752.50
2023-02-18T03:47:34.604Z,102760.00
2023-02-18T03:50:01.433Z,102759.59
2023-02-18T03:52:28.263Z,102757.44
2023-02-18T03:54:55.265Z,102762.75
2023-02-18T03:57:22.048Z,102759.34
2023-02-18T03:59:48.855Z,102759.34
2023-02-18T04:02:15.661Z,102755.81
2023-02-18T04:04:42.433Z,102756.81
2023-02-18T04:07:09.277Z,102754.16
2023-02-18T04:09:36.125Z,102748.97
2023-02-18T04:12:03.018Z,102750.34
2023-02-18T04:14:29.853Z,102744.75
2023-02-18T04:16:56.603Z,102748.16
2023-02-18T04:19:23.382Z,102751.34
2023-02-18T04:21:50.190Z,102745.16
2023-02-18T04:24:17.015Z,102747.91
2023-02-18T04:26:43.727Z,102749.81
2023-02-18T04:29:10.573Z,102756.16
2023-02-18T04:31:37.686Z,102747.03
2023-02-18T04:34:04.940Z,102743.69
2023-02-18T04:36:31.707Z,102747.81
2023-02-18T04:38:59.315Z,102749.19
2023-02-18T04:41:26.145Z,102747.72
2023-02-18T04:43:52.908Z,102749.59
2023-02-18T04:46:19.716Z,102753.00
2023-02-18T04:48:46.453Z,102740.28
2023-02-18T04:51:13.256Z,102747.19
2023-02-18T04:53:39.922Z,102753.97
2023-02-18T04:56:07.045Z,102749.41
2023-02-18T04:58:33.950Z,102744.97
2023-02-18T05:01:02.417Z,102751.53
2023-02-18T05:03:29.397Z,102748.88
2023-02-18T05:05:56.268Z,102750.34
2023-02-18T05:08:23.230Z,102744.34
2023-02-18T05:10:50.036Z,102742.84
2023-02-18T05:13:16.900Z,102746.44
2023-02-18T05:15:43.943Z,102754.28
2023-02-18T05:18:10.749Z,102748.31
2023-02-18T05:20:37.505Z,102754.91
2023-02-18T05:23:04.286Z,102756.75
2023-02-18T05:25:31.226Z,102754.25
2023-02-18T05:27:58.139Z,102754.13
2023-02-18T05:30:24.911Z,102759.41
2023-02-18T05:32:51.703Z,102758.25
2023-02-18T05:35:18.580Z,102757.53
2023-02-18T05:37:45.315Z,102764.00
2023-02-18T05:40:12.273Z,102757.94
2023-02-18T05:42:39.096Z,102761.75
2023-02-18T05:45:06.119Z,102749.88
2023-02-18T05:47:32.919Z,102747.69
2023-02-18T05:49:59.867Z,102752.88
2023-02-18T05:52:26.698Z,102748.41
2023-02-18T05:54:53.550Z,102750.56
2023-02-18T05:57:20.414Z,102764.66
2023-02-18T05:59:47.241Z,102766.56
2023-02-18T06:02:14.024Z,102754.47
2023-02-18T06:04:40.767Z,102754.50
2023-02-18T06:07:07.596Z,102759.47
2023-02-18T06:09:34.364Z,102755.97
2023-02-18T06:12:01.092Z,102757.78
2023-02-18T06:14:28.019Z,102764.66
2023-02-18T06:16:54.924Z,102759.81
2023-02-18T06:19:21.694Z,102768.69
2023-02-18T06:21:48.453Z,102768.81
2023-02-18T06:24:15.286Z,102765.41
2023-02-18T06:26:42.114Z,102774.41
2023-02-18T06:29:08.890Z,102772.59
2023-02-18T06:31:35.756Z,102788.84
2023-02-18T06:34:02.784Z,102790.44
2023-02-18T06:36:29.488Z,102789.28
2023-02-18T06:38:57.590Z,102794.59
2023-02-18T06:41:24.518Z,102799.84
2023-02-18T06:43:51.839Z,102800.47
2023-02-18T06:46:18.634Z,102801.47
2023-02-18T06:48:47.916Z,102816.69
2023-02-18T06:51:16.204Z,102808.56
2023-02-18T06:53:43.936Z,102804.94
2023-02-18T06:56:11.436Z,102807.94
2023-02-18T06:58:38.774Z,102806.06
2023-02-18T07:01:05.707Z,102823.34
2023-02-18T07:03:32.532Z,102820.28
2023-02-18T07:06:00.006Z,102818.84
2023-02-18T07:08:26.850Z,102819.81
2023-02-18T07:10:53.615Z,102819.84
2023-02-18T07:13:20.414Z,102833.19
2023-02-18T07:15:48.344Z,102833.16
2023-02-18T07:18:17.976Z,102827.03
2023-02-18T07:20:44.916Z,102822.78
2023-02-18T07:23:12.850Z,102833.41
2023-02-18T07:25:39.678Z,102833.91
2023-02-18T07:28:06.428Z,102831.47
2023-02-18T07:30:33.379Z,102839.09
2023-02-18T07:33:01.860Z,102847.78
2023-02-18T07:35:29.904Z,102838.03
2023-02-18T07:37:58.001Z,102847.56
2023-02-18T07:40:24.926Z,102853.91
2023-02-18T07:42:51.710Z,102849.03
2023-02-18T07:45:19.475Z,102856.34
2023-02-18T07:47:46.226Z,102851.78
2023-02-18T07:50:12.996Z,102860.31
2023-02-18T07:52:39.724Z,102860.56
2023-02-18T07:55:06.952Z,102856.28
2023-02-18T07:57:33.704Z,102858.53
2023-02-18T08:00:00.495Z,102856.44
2023-02-18T08:02:27.316Z,102863.84
2023-02-18T08:04:54.079Z,102853.38
2023-02-18T08:07:22.980Z,102856.50
2023-02-18T08:09:50.766Z,102856.69
2023-02-18T08:12:17.854Z,102861.25
2023-02-18T08:14:44.715Z,102853.06
2023-02-18T08:17:11.471Z,102862.00
2023-02-18T08:19:38.259Z,102854.38
2023-02-18T08:22:05.300Z,102855.84
2023-02-18T08:24:32.034Z,102861.50
2023-02-18T08:27:09.526Z,102864.28
2023-02-18T08:29:36.242Z,102858.09
2023-02-18T08:32:03.148Z,102856.06
2023-02-18T08:34:30.024Z,102856.28
2023-02-18T08:36:56.878Z,102862.13
2023-02-18T08:39:23.629Z,102859.56
2023-02-18T08:41:50.456Z,102849.44
2023-02-18T08:44:17.252Z,102849.78
2023-02-18T08:46:44.210Z,102852.78
2023-02-18T08:49:10.958Z,102854.56
2023-02-18T08:51:37.737Z,102851.28
2023-02-18T08:54:04.737Z,102848.25
2023-02-18T08:56:32.636Z,102858.97
2023-02-18T08:58:59.746Z,102847.88
2023-02-18T09:01:26.872Z,102846.25
2023-02-18T09:03:53.670Z,102843.22
2023-02-18T09:06:20.448Z,102843.28
2023-02-18T09:08:47.340Z,102846.56
2023-02-18T09:11:14.979Z,102849.97
2023-02-18T09:13:41.827Z,102851.94
2023-02-18T09:16:12.681Z,102861.44
2023-02-18T09:18:39.610Z,102860.13
2023-02-18T09:21:09.504Z,102851.38
2023-02-18T09:23:36.983Z,102854.81
2023-02-18T09:26:08.997Z,102852.56
2023-02-18T09:28:36.401Z,102853.41
2023-02-18T09:31:08.722Z,102847.63
2023-02-18T09:33:37.872Z,102851.56
2023-02-18T09:36:05.142Z,102852.41
2023-02-18T09:38:31.908Z,102856.63
2023-02-18T09:41:01.430Z,102859.16
2023-02-18T09:43:35.802Z,102864.66
2023-02-18T09:46:04.692Z,102859.75
2023-02-18T09:48:37.498Z,102866.22
2023-02-18T09:51:04.537Z,102865.09
2023-02-18T09:53:31.388Z,102870.44
2023-02-18T09:55:58.840Z,102869.03
2023-02-18T09:58:33.669Z,102867.22
2023-02-18T10:01:10.949Z,102866.38
2023-02-18T10:03:38.529Z,102871.69
2023-02-18T10:06:10.860Z,102865.50
2023-02-18T10:08:45.600Z,102856.53
2023-02-18T10:11:23.376Z,102867.88
2023-02-18T10:13:50.917Z,102862.41
2023-02-18T10:16:19.771Z,102849.91
2023-02-18T10:18:50.661Z,102855.53
2023-02-18T10:21:25.018Z,102859.72
2023-02-18T10:24:14.999Z,102852.91
2023-02-18T10:26:42.424Z,102849.31
2023-02-18T10:29:21.419Z,102846.00
2023-02-18T10:31:59.944Z,102844.56
2023-02-18T10:34:35.587Z,102845.72
2023-02-18T10:37:35.271Z,102842.41
2023-02-18T10:40:16.991Z,102844.50
2023-02-18T10:43:07.748Z,102843.66
2023-02-18T10:45:51.357Z,102841.44
2023-02-18T10:49:01.177Z,102843.09
2023-02-18T10:51:34.719Z,102840.16
2023-02-18T10:54:02.124Z,102842.94
2023-02-18T10:56:42.954Z,102836.31
2023-02-18T10:59:33.596Z,102841.09
2023-02-18T11:02:05.596Z,102840.97
2023-02-18T11:04:37.988Z,102822.06
2023-02-18T11:07:12.911Z,102822.59
2023-02-18T11:09:45.701Z,102824.97
2023-02-18T11:12:44.640Z,102814.75
2023-02-18T11:15:14.187Z,102814.47
2023-02-18T11:17:47.020Z,102808.44
2023-02-18T11:20:29.749Z,102801.06
2023-02-18T11:23:21.346Z,102799.06
2023-02-18T11:26:07.849Z,102798.72
2023-02-18T11:28:50.026Z,102795.59
2023-02-18T11:31:19.871Z,102787.53
2023-02-18T11:33:52.016Z,102787.53
2023-02-18T11:36:18.811Z,102778.59
2023-02-18T11:38:50.129Z,102777.94
2023-02-18T11:41:39.805Z,102778.25
2023-02-18T11:44:19.573Z,102771.38
2023-02-18T11:47:00.464Z,102770.56
2023-02-18T11:49:27.785Z,102768.84
2023-02-18T11:51:54.555Z,102760.47
2023-02-18T11:54:30.383Z,102754.75
2023-02-18T11:57:10.702Z,102757.63
2023-02-18T11:59:39.759Z,102749.88
2023-02-18T12:02:22.725Z,102739.47
2023-02-18T12:05:00.049Z,102735.25
2023-02-18T12:07:49.874Z,102732.72
2023-02-18T12:10:28.199Z,102734.75
2023-02-18T12:12:59.776Z,102726.69
2023-02-18T12:15:46.890Z,102722.50
2023-02-18T12:18:28.846Z,102717.97
2023-02-18T12:21:16.760Z,102717.97
2023-02-18T12:24:05.230Z,102708.06
2023-02-18T12:27:13.276Z,102703.34
2023-02-18T12:30:12.865Z,102697.44
2023-02-18T12:33:16.462Z,102687.22
2023-02-18T12:36:08.166Z,102687.72
2023-02-18T12:38:56.213Z,102690.03
2023-02-18T12:41:22.898Z,102678.63
2023-02-18T12:44:02.847Z,102680.44
2023-02-18T12:46:49.145Z,102664.13
2023-02-18T12:49:41.850Z,102661.97
2023-02-18T12:52:47.677Z,102663.31
2023-02-18T12:55:49.314Z,102664.16
2023-02-18T12:58:21.873Z,102644.84
2023-02-18T13:00:53.305Z,102651.09
2023-02-18T13:03:58.304Z,102647.19
2023-02-18T13:06:42.121Z,102635.75
2023-02-18T13:09:21.062Z,102641.47
2023-02-18T13:12:35.217Z,102633.94
2023-02-18T13:15:17.838Z,102630.25
2023-02-18T13:17:45.905Z,102628.72
2023-02-18T13:20:29.616Z,102619.66
2023-02-18T13:22:56.945Z,102619.19
2023-02-18T13:25:24.710Z,102616.72
2023-02-18T13:28:10.629Z,102610.25
2023-02-18T13:30:48.288Z,102616.28
2023-02-18T13:33:36.653Z,102607.31
2023-02-18T13:36:14.575Z,102602.81
2023-02-18T13:39:05.966Z,102598.53
2023-02-18T13:41:41.664Z,102594.47
2023-02-18T13:44:28.807Z,102587.72
2023-02-18T13:46:57.969Z,102582.84
2023-02-18T13:49:34.018Z,102572.97
2023-02-18T13:52:03.250Z,102575.28
2023-02-18T13:54:37.347Z,102562.47
2023-02-18T13:57:14.729Z,102564.66
2023-02-18T13:59:50.727Z,102557.88
2023-02-18T14:02:20.560Z,102555.47
2023-02-18T14:04:51.438Z,102546.69
2023-02-18T14:07:33.747Z,102539.63
2023-02-18T14:10:02.713Z,102540.28
2023-02-18T14:12:37.683Z,102529.34
2023-02-18T14:15:19.574Z,102534.84
2023-02-18T14:18:14.178Z,102536.75
2023-02-18T14:20:41.008Z,102527.00
2023-02-18T14:23:20.101Z,102529.41
2023-02-18T14:26:05.878Z,102531.97
2023-02-18T14:28:38.559Z,102525.81
2023-02-18T14:31:06.958Z,102521.22
2023-02-18T14:33:37.062Z,102513.16
2023-02-18T14:36:29.552Z,102513.91
2023-02-18T14:39:35.993Z,102511.22
2023-02-18T14:42:15.637Z,102506.84
2023-02-18T14:45:05.671Z,102504.00
2023-02-18T14:48:02.966Z,102502.13
2023-02-18T14:50:37.077Z,102492.94
2023-02-18T14:53:07.523Z,102499.00
2023-02-18T14:55:41.170Z,102492.97
2023-02-18T14:58:21.596Z,102488.75
2023-02-18T15:00:48.349Z,102484.72
2023-02-18T15:03:20.335Z,102483.56
2023-02-18T15:05:47.471Z,102484.56
2023-02-18T15:08:22.852Z,102486.00
2023-02-18T15:11:04.381Z,102474.41
2023-02-18T15:13:34.797Z,102469.47
2023-02-18T15:16:06.306Z,102466.63
2023-02-18T15:18:45.163Z,102465.47
2023-02-18T15:21:24.669Z,102473.41
2023-02-18T15:23:51.911Z,102460.97
2023-02-18T15:26:18.768Z,102465.84
2023-02-18T15:29:01.728Z,102461.47
2023-02-18T15:31:31.554Z,102460.09
2023-02-18T15:33:59.174Z,102462.47
2023-02-18T15:36:27.307Z,102455.88
2023-02-18T15:38:56.935Z,102464.84
2023-02-18T15:41:24.057Z,102457.78
2023-02-18T15:44:03.850Z,102457.06
2023-02-18T15:46:31.967Z,102453.00
2023-02-18T15:48:59.598Z,102451.81
2023-02-18T15:51:30.028Z,102449.28
2023-02-18T15:54:03.840Z,102449.94
2023-02-18T15:56:34.534Z,102445.72
2023-02-18T15:59:14.386Z,102446.72
2023-02-18T16:01:41.289Z,102446.53
2023-02-18T16:04:09.006Z,102438.84
2023-02-18T16:06:39.571Z,102439.00
2023-02-18T16:09:24.240Z,102443.31
2023-02-18T16:12:02.109Z,102444.16
2023-02-18T16:14:34.456Z,102445.72
2023-02-18T16:17:10.427Z,102443.84
2023-02-18T16:20:05.193Z,102442.94
2023-02-18T16:22:43.177Z,102445.84
2023-02-18T16:25:26.080Z,102444.44
2023-02-18T16:28:03.380Z,102438.22
2023-02-18T16:30:33.175Z,102442.38
2023-02-18T16:33:00.706Z,102439.88
2023-02-18T16:35:40.511Z,102448.72
2023-02-18T16:38:22.059Z,102439.97
2023-02-18T16:40:49.695Z,102446.53
2023-02-18T16:43:22.841Z,102445.22
2023-02-18T16:45:53.167Z,102443.91
2023-02-18T16:48:27.963Z,102442.25
2023-02-18T16:50:54.987Z,102442.59
2023-02-18T16:53:21.949Z,102442.13
2023-02-18T16:55:50.930Z,102448.91
2023-02-18T16:58:17.917Z,102447.22
2023-02-18T17:00:46.267Z,102439.69
2023-02-18T17:03:13.702Z,102443.09
2023-02-18T17:05:41.226Z,102450.03
2023-02-18T17:08:27.275Z,102446.75
2023-02-18T17:10:57.590Z,102454.88
2023-02-18T17:13:27.811Z,102452.91
2023-02-18T17:15:57.263Z,102456.50
2023-02-18T17:18:25.016Z,102457.91
2023-02-18T17:20:53.368Z,102464.31
2023-02-18T17:23:23.027Z,102477.63
2023-02-18T17:25:52.180Z,102469.13
2023-02-18T17:28:19.371Z,102477.06
2023-02-18T17:30:49.342Z,102475.56
2023-02-18T17:33:18.695Z,102487.19
2023-02-18T17:35:46.111Z,102487.34
2023-02-18T17:38:18.769Z,102486.88
2023-02-18T17:40:45.746Z,102492.59
2023-02-18T17:43:14.851Z,102497.97
2023-02-18T17:46:00.277Z,102503.81
2023-02-18T17:48:28.336Z,102503.00
2023-02-18T17:50:55.665Z,102513.06
2023-02-18T17:53:22.774Z,102513.38
2023-02-18T17:55:50.585Z,102514.56
2023-02-18T17:58:17.684Z,102516.56
2023-02-18T18:00:48.824Z,102510.69
2023-02-18T18:03:16.348Z,102521.78
2023-02-18T18:05:48.081Z,102515.91
2023-02-18T18:08:16.136Z,102518.41
2023-02-18T18:10:51.755Z,102524.75
2023-02-18T18:13:32.325Z,102518.88
2023-02-18T18:15:59.305Z,102532.78
2023-02-18T18:18:26.989Z,102528.59
2023-02-18T18:20:57.874Z,102531.25
2023-02-18T18:23:24.738Z,102528.91
2023-02-18T18:25:57.550Z,102538.28
2023-02-18T18:28:26.626Z,102537.28
2023-02-18T18:30:55.631Z,102528.88
2023-02-18T18:33:31.266Z,102532.56
2023-02-18T18:36:00.557Z,102537.41
2023-02-18T18:38:28.720Z,102539.25
2023-02-18T18:40:55.881Z,102542.94
2023-02-18T18:43:32.934Z,102535.91
2023-02-18T18:46:00.434Z,102551.44
2023-02-18T18:48:27.634Z,102542.91
2023-02-18T18:50:54.973Z,102540.72
2023-02-18T18:53:33.069Z,102542.72
2023-02-18T18:56:04.891Z,102541.84
2023-02-18T18:58:32.199Z,102538.81
2023-02-18T19:01:04.256Z,102537.97
2023-02-18T19:03:31.572Z,102543.00
2023-02-18T19:06:01.357Z,102536.28
2023-02-18T19:08:32.390Z,102544.31
2023-02-18T19:10:59.206Z,102548.81
2023-02-18T19:13:30.525Z,102539.25
2023-02-18T19:16:22.745Z,102542.78
2023-02-18T19:18:50.320Z,102548.59
2023-02-18T19:21:17.245Z,102548.59
2023-02-18T19:23:44.517Z,102547.13
2023-02-18T19:26:12.816Z,102552.75
2023-02-18T19:28:39.595Z,102552.41
2023-02-18T19:31:09.976Z,102560.72
2023-02-18T19:33:39.185Z,102555.38
2023-02-18T19:36:10.979Z,102558.31
2023-02-18T19:38:37.957Z,102553.50
2023-02-18T19:41:17.127Z,102554.97
2023-02-18T19:43:46.560Z,102564.13
2023-02-18T19:46:23.036Z,102562.38
2023-02-18T19:48:59.974Z,102559.56
2023-02-18T19:51:26.954Z,102556.03
2023-02-18T19:53:54.537Z,102555.66
2023-02-18T19:56:21.470Z,102562.84
2023-02-18T19:58:48.270Z,102562.88
2023-02-18T20:01:16.818Z,102564.66
2023-02-18T20:03:44.275Z,102561.19
2023-02-18T20:06:18.636Z,102564.56
2023-02-18T20:08:46.105Z,102558.34
2023-02-18T20:11:22.822Z,102563.03
2023-02-18T20:13:49.818Z,102564.19
2023-02-18T20:16:16.606Z,102562.66
2023-02-18T20:18:43.522Z,102570.44
2023-02-18T20:21:12.302Z,102569.91
2023-02-18T20:23:40.443Z,102569.91
2023-02-18T20:26:12.105Z,102569.13
2023-02-18T20:28:38.941Z,102575.13
2023-02-18T20:31:11.560Z,102576.69
2023-02-18T20:33:39.279Z,102573.03
2023-02-18T20:36:08.449Z,102581.66
2023-02-18T20:38:36.994Z,102575.00
2023-02-18T20:41:11.948Z,102582.34
2023-02-18T20:43:40.236Z,102575.88
2023-02-18T20:46:13.194Z,102581.16
2023-02-18T20:48:48.834Z,102579.47
2023-02-18T20:51:18.223Z,102570.19
2023-02-18T20:53:46.826Z,102571.78
2023-02-18T20:56:14.796Z,102570.78
2023-02-18T20:58:41.704Z,102571.31
2023-02-18T21:01:13.161Z,102568.63
2023-02-18T21:03:41.073Z,102579.47
2023-02-18T21:06:10.848Z,102569.50
2023-02-18T21:08:40.564Z,102567.97
2023-02-18T21:11:12.042Z,102567.25
2023-02-18T21:13:40.465Z,102563.16
2023-02-18T21:16:10.595Z,102572.16
2023-02-18T21:18:43.618Z,102563.59
2023-02-18T21:21:16.673Z,102563.44
2023-02-18T21:23:53.097Z,102559.66
2023-02-18T21:26:25.488Z,102555.75
2023-02-18T21:28:58.905Z,102557.84
2023-02-18T21:31:53.711Z,102565.03
2023-02-18T21:34:22.165Z,102557.50
2023-02-18T21:36:57.867Z,102554.97
2023-02-18T21:39:27.093Z,102549.63
2023-02-18T21:41:53.963Z,102550.06
2023-02-18T21:44:25.018Z,102536.84
2023-02-18T21:46:56.875Z,102551.19
2023-02-18T21:49:24.859Z,102550.22
2023-02-18T21:51:57.965Z,102545.00
2023-02-18T21:54:31.319Z,102556.16
2023-02-18T21:57:03.854Z,102558.81
2023-02-18T21:59:37.286Z,102559.94
2023-02-18T22:02:19.096Z,102558.25
2023-02-18T22:04:52.706Z,102561.91
2023-02-18T22:07:25.580Z,102568.25
2023-02-18T22:09:55.466Z,102554.91
2023-02-18T22:12:24.093Z,102563.78
2023-02-18T22:14:50.934Z,102557.75
2023-02-18T22:17:33.991Z,102557.91
2023-02-18T22:20:01.107Z,102557.91
2023-02-18T22:22:37.341Z,102565.22
2023-02-18T22:25:04.743Z,102557.50
2023-02-18T22:27:31.602Z,102561.47
2023-02-18T22:29:58.991Z,102562.28
2023-02-18T22:32:35.399Z,102559.94
2023-02-18T22:35:07.824Z,102560.47
2023-02-18T22:37:43.718Z,102564.00
2023-02-18T22:40:14.205Z,102560.06
2023-02-18T22:42:41.170Z,102558.69
2023-02-18T22:45:08.452Z,102554.91
2023-02-18T22:47:37.005Z,102551.69
2023-02-18T22:50:04.132Z,102554.22
2023-02-18T22:52:30.913Z,102546.66
2023-02-18T22:54:57.635Z,102544.97
2023-02-18T22:57:24.416Z,102546.50
2023-02-18T22:59:52.319Z,102544.69
2023-02-18T23:02:21.203Z,102540.75
2023-02-18T23:04:47.975Z,102540.91
2023-02-18T23:07:14.815Z,102544.41
2023-02-18T23:09:41.785Z,102540.34
2023-02-18T23:12:08.588Z,102544.28
2023-02-18T23:14:35.382Z,102543.44
2023-02-18T23:17:13.792Z,102549.31
2023-02-18T23:19:41.610Z,102543.69
2023-02-18T23:22:16.285Z,102544.97
2023-02-18T23:24:46.959Z,102545.53
2023-02-18T23:27:15.420Z,102537.13
2023-02-18T23:29:42.636Z,102538.66
2023-02-18T23:32:14.215Z,102547.38
2023-02-18T23:34:41.178Z,102544.56
2023-02-18T23:37:08.444Z,102537.69
2023-02-18T23:39:35.708Z,102545.41
2023-02-18T23:42:03.588Z,102532.22
2023-02-18T23:44:30.434Z,102540.72
2023-02-18T23:46:57.247Z,102528.97
2023-02-18T23:49:25.903Z,102525.06
2023-02-18T23:51:54.756Z,102526.16
2023-02-18T23:54:24.513Z,102525.78
2023-02-18T23:56:54.103Z,102515.13
2023-02-18T23:59:20.919Z,102520.00
